Time;durP1;ratioP1;P1;durP2;ratioP2;P2;SDS_P1;SDS_P2;PMS_P1;PMS_P2;Temp;Humidity;BMP_temperature;BMP_pressure;BME280_temperature;BME280_humidity;BME280_pressure;Samples;Min_cycle;Max_cycle;Signal;HPM_P1;HPM_P2
2022/07/31 00:00:07;;;;;;;0.93;0.93;;;26.60;54.50;;;;;;5088479;28;20581;-58
2022/07/31 00:02:35;;;;;;;0.80;0.80;;;26.60;54.50;;;;;;5087463;28;20549;-58
2022/07/31 00:05:03;;;;;;;0.85;0.82;;;26.60;54.50;;;;;;5088627;28;20464;-58
2022/07/31 00:07:30;;;;;;;0.90;0.90;;;26.60;54.50;;;;;;5088013;28;20072;-58
2022/07/31 00:09:57;;;;;;;1.02;0.82;;;26.60;54.50;;;;;;5089072;28;20044;-58
2022/07/31 00:12:24;;;;;;;1.20;1.20;;;26.60;54.50;;;;;;5088467;28;20119;-58
2022/07/31 00:14:51;;;;;;;1.42;0.88;;;26.60;54.50;;;;;;5088490;28;20512;-58
2022/07/31 00:17:19;;;;;;;0.75;0.75;;;26.60;54.50;;;;;;5089370;28;20044;-58
2022/07/31 00:19:46;;;;;;;1.50;0.85;;;26.60;54.50;;;;;;5089104;28;20102;-58
2022/07/31 00:22:13;;;;;;;2.35;0.90;;;26.60;54.50;;;;;;5088842;28;20083;-58
2022/07/31 00:24:40;;;;;;;0.90;0.90;;;26.60;54.50;;;;;;5084269;28;20039;-58
2022/07/31 00:27:09;;;;;;;0.85;0.85;;;26.60;54.50;;;;;;5089122;28;20134;-58
2022/07/31 00:29:37;;;;;;;1.20;0.98;;;26.60;54.50;;;;;;5088880;28;20048;-58
2022/07/31 00:32:05;;;;;;;0.90;0.90;;;26.60;54.60;;;;;;5088512;28;20040;-58
2022/07/31 00:34:32;;;;;;;1.00;1.00;;;26.60;54.50;;;;;;5089202;28;20044;-58
2022/07/31 00:36:59;;;;;;;0.90;0.90;;;26.60;54.60;;;;;;5088460;28;20052;-58
2022/07/31 00:39:27;;;;;;;0.77;0.77;;;26.50;54.50;;;;;;5089025;28;20404;-58
2022/07/31 00:41:54;;;;;;;0.75;0.75;;;26.60;54.60;;;;;;5089083;28;20531;-58
2022/07/31 00:44:21;;;;;;;0.65;0.65;;;26.50;54.50;;;;;;5089036;28;20105;-59
2022/07/31 00:46:49;;;;;;;0.85;0.85;;;26.60;54.60;;;;;;5088447;28;20483;-58
2022/07/31 00:49:16;;;;;;;0.70;0.70;;;26.50;54.50;;;;;;5088740;28;20726;-59
2022/07/31 00:51:43;;;;;;;0.73;0.73;;;26.60;54.50;;;;;;5088579;28;20701;-58
2022/07/31 00:54:10;;;;;;;1.00;1.00;;;26.50;54.50;;;;;;5088515;28;20098;-59
2022/07/31 00:56:49;;;;;;;0.88;0.88;;;26.60;54.50;;;;;;5084040;28;20051;-59
2022/07/31 00:59:16;;;;;;;0.85;0.85;;;26.60;54.60;;;;;;5088211;28;20471;-58
2022/07/31 01:01:50;;;;;;;0.82;0.80;;;26.60;54.50;;;;;;5086881;28;20079;-58
2022/07/31 01:04:18;;;;;;;0.77;0.77;;;26.60;54.50;;;;;;5088029;28;20123;-58
2022/07/31 01:06:46;;;;;;;0.80;0.68;;;26.60;54.50;;;;;;5088748;28;20055;-59
2022/07/31 01:09:14;;;;;;;1.05;1.00;;;26.60;54.50;;;;;;5088076;28;20044;-59
2022/07/31 01:11:53;;;;;;;2.70;1.27;;;26.60;54.50;;;;;;5088676;28;20500;-58
2022/07/31 01:14:25;;;;;;;0.77;0.55;;;26.60;54.50;;;;;;5087880;28;20044;-58
2022/07/31 01:16:54;;;;;;;0.70;0.70;;;26.60;54.50;;;;;;5088190;28;20471;-59
2022/07/31 01:19:31;;;;;;;0.70;0.70;;;26.60;54.50;;;;;;5088127;28;20075;-59
2022/07/31 01:22:47;;;;;;;0.80;0.80;;;26.50;54.50;;;;;;5086904;28;20044;-60
2022/07/31 01:25:54;;;;;;;2.03;0.90;;;26.60;54.50;;;;;;5072864;28;20127;-58
2022/07/31 01:29:01;;;;;;;0.88;0.88;;;26.60;54.50;;;;;;5082773;28;20132;-59
2022/07/31 01:31:43;;;;;;;0.73;0.73;;;26.60;54.60;;;;;;5087563;28;20105;-59
2022/07/31 01:34:23;;;;;;;0.70;0.70;;;26.50;54.50;;;;;;5087461;28;20479;-59
2022/07/31 01:36:58;;;;;;;0.90;0.90;;;26.50;54.50;;;;;;5087410;28;20557;-58
2022/07/31 01:39:27;;;;;;;0.93;0.93;;;26.50;54.50;;;;;;5086423;28;20448;-58
2022/07/31 01:42:03;;;;;;;0.80;0.80;;;26.50;54.50;;;;;;5087428;28;20051;-58
2022/07/31 01:44:35;;;;;;;0.73;0.73;;;26.50;54.60;;;;;;5087075;28;20044;-58
2022/07/31 01:47:02;;;;;;;1.02;1.02;;;26.50;54.50;;;;;;5087595;28;20443;-58
2022/07/31 01:49:32;;;;;;;1.27;0.90;;;26.50;54.60;;;;;;5087289;28;20093;-58
2022/07/31 01:52:01;;;;;;;0.93;0.93;;;26.50;54.50;;;;;;5087377;28;20135;-58
2022/07/31 01:54:33;;;;;;;0.90;0.90;;;26.50;54.60;;;;;;5087001;28;20074;-58
2022/07/31 01:57:03;;;;;;;0.80;0.80;;;26.50;54.60;;;;;;5087268;28;20369;-58
2022/07/31 01:59:34;;;;;;;0.63;0.63;;;26.50;54.60;;;;;;5082451;28;20140;-59
2022/07/31 02:02:03;;;;;;;0.70;0.70;;;26.50;54.60;;;;;;5087506;28;20043;-59
2022/07/31 02:04:32;;;;;;;0.70;0.70;;;26.50;54.60;;;;;;5086844;28;20496;-58
2022/07/31 02:07:02;;;;;;;1.02;1.00;;;26.50;54.60;;;;;;5086998;28;20087;-58
2022/07/31 02:09:32;;;;;;;0.85;0.85;;;26.50;54.60;;;;;;5086916;28;20044;-58
2022/07/31 02:11:59;;;;;;;0.63;0.63;;;26.50;54.60;;;;;;5087280;28;20086;-59
2022/07/31 02:14:29;;;;;;;0.65;0.65;;;26.50;54.60;;;;;;5066292;28;20512;-59
2022/07/31 02:16:58;;;;;;;0.80;0.80;;;26.50;54.60;;;;;;5066597;28;20056;-59
2022/07/31 02:19:27;;;;;;;0.90;0.90;;;26.50;54.60;;;;;;5065190;28;20548;-59
2022/07/31 02:21:58;;;;;;;1.10;1.10;;;26.50;54.60;;;;;;5065671;28;20052;-58
2022/07/31 02:24:26;;;;;;;0.68;0.68;;;26.50;54.60;;;;;;5066754;28;20041;-58
2022/07/31 02:26:55;;;;;;;0.77;0.77;;;26.50;54.90;;;;;;5066771;28;20048;-58
2022/07/31 02:29:23;;;;;;;0.70;0.70;;;26.50;54.60;;;;;;5064064;28;20308;-59
2022/07/31 02:31:54;;;;;;;1.23;1.23;;;26.50;54.50;;;;;;5064543;28;20088;-58
2022/07/31 02:34:31;;;;;;;0.82;0.82;;;26.50;54.50;;;;;;5065681;28;20287;-59
2022/07/31 02:37:00;;;;;;;0.77;0.77;;;26.50;54.50;;;;;;5064721;28;20048;-58
2022/07/31 02:39:30;;;;;;;0.82;0.82;;;26.50;54.50;;;;;;5065947;28;20570;-58
2022/07/31 02:41:59;;;;;;;0.80;0.80;;;26.50;54.50;;;;;;5065700;28;20088;-59
2022/07/31 02:44:30;;;;;;;0.90;0.80;;;26.50;54.50;;;;;;5065055;28;20048;-59
2022/07/31 02:47:01;;;;;;;0.60;0.60;;;26.50;54.50;;;;;;5066226;28;20457;-59
2022/07/31 02:49:29;;;;;;;0.82;0.82;;;26.50;54.50;;;;;;5066534;28;20090;-59
2022/07/31 02:51:57;;;;;;;0.80;0.80;;;26.50;54.50;;;;;;5066670;28;20252;-58
2022/07/31 02:54:25;;;;;;;0.85;0.80;;;26.50;54.50;;;;;;5064658;28;20067;-59
2022/07/31 02:56:52;;;;;;;0.90;0.90;;;26.50;54.50;;;;;;5066404;28;20551;-58
2022/07/31 02:59:21;;;;;;;2.78;1.05;;;26.50;54.50;;;;;;5065698;28;20752;-59
2022/07/31 03:01:48;;;;;;;0.88;0.88;;;26.50;54.50;;;;;;5061460;28;20135;-59
2022/07/31 03:04:15;;;;;;;0.80;0.80;;;26.50;54.50;;;;;;5065943;28;20044;-58
2022/07/31 03:06:42;;;;;;;0.68;0.68;;;26.50;54.50;;;;;;5066032;28;20136;-58
2022/07/31 03:09:09;;;;;;;1.33;1.23;;;26.50;54.50;;;;;;5066318;28;20049;-59
2022/07/31 03:11:36;;;;;;;0.80;0.80;;;26.50;54.50;;;;;;5066112;28;20097;-58
2022/07/31 03:14:06;;;;;;;2.55;1.00;;;26.50;54.50;;;;;;5083185;28;20048;-58
2022/07/31 03:16:34;;;;;;;1.23;0.70;;;26.50;54.50;;;;;;5085684;28;20578;-59
2022/07/31 03:19:03;;;;;;;0.70;0.70;;;26.50;54.50;;;;;;5085605;28;20079;-58
2022/07/31 03:21:30;;;;;;;0.77;0.60;;;26.50;55.10;;;;;;5086613;28;20853;-59
2022/07/31 03:23:59;;;;;;;0.82;0.82;;;26.50;54.50;;;;;;5085626;28;20309;-58
2022/07/31 03:26:29;;;;;;;0.80;0.80;;;26.50;54.50;;;;;;5085965;28;20093;-60
2022/07/31 03:28:59;;;;;;;0.80;0.80;;;26.50;54.50;;;;;;5085986;28;20055;-59
2022/07/31 03:31:26;;;;;;;1.15;0.90;;;26.50;54.50;;;;;;5085863;28;20563;-58
2022/07/31 03:33:53;;;;;;;0.95;0.95;;;26.50;54.50;;;;;;5081352;28;20050;-58
2022/07/31 03:36:21;;;;;;;0.90;0.90;;;26.50;54.50;;;;;;5085675;28;20129;-59
2022/07/31 03:38:49;;;;;;;0.85;0.85;;;26.50;54.50;;;;;;5084978;28;20152;-59
2022/07/31 03:41:16;;;;;;;0.90;0.90;;;26.50;54.50;;;;;;5085949;28;20076;-58
2022/07/31 03:43:48;;;;;;;1.00;0.80;;;26.50;54.50;;;;;;5085787;28;20102;-58
2022/07/31 03:46:18;;;;;;;0.80;0.80;;;26.50;54.50;;;;;;5086116;28;20601;-58
2022/07/31 03:48:46;;;;;;;0.80;0.80;;;26.50;54.50;;;;;;5088655;28;20402;-58
2022/07/31 03:51:14;;;;;;;0.70;0.70;;;26.50;54.40;;;;;;5090270;28;20052;-58
2022/07/31 03:53:42;;;;;;;1.38;0.80;;;26.50;54.40;;;;;;5089596;28;20048;-59
2022/07/31 03:56:11;;;;;;;0.85;0.85;;;26.50;54.40;;;;;;5089419;28;20093;-58
2022/07/31 03:58:38;;;;;;;1.15;1.08;;;26.50;54.30;;;;;;5089696;28;20048;-59
2022/07/31 04:01:06;;;;;;;0.73;0.73;;;26.60;54.30;;;;;;5089546;28;20040;-58
2022/07/31 04:03:38;;;;;;;0.85;0.85;;;26.50;54.20;;;;;;5088069;28;20082;-58
2022/07/31 04:06:05;;;;;;;0.75;0.75;;;26.50;54.20;;;;;;5086124;28;20052;-58
2022/07/31 04:08:33;;;;;;;0.88;0.88;;;26.60;54.20;;;;;;5089694;28;20044;-58
2022/07/31 04:11:00;;;;;;;0.80;0.80;;;26.60;54.20;;;;;;5089106;28;20086;-58
2022/07/31 04:13:27;;;;;;;1.00;1.00;;;26.60;54.10;;;;;;5089112;28;20079;-58
2022/07/31 04:15:54;;;;;;;1.75;1.10;;;26.60;54.10;;;;;;5087923;28;20429;-58
2022/07/31 04:18:22;;;;;;;0.98;0.90;;;26.60;54.00;;;;;;5087722;28;20089;-58
2022/07/31 04:20:49;;;;;;;2.15;0.90;;;26.60;54.00;;;;;;5088604;28;20596;-58
2022/07/31 04:23:16;;;;;;;0.90;0.90;;;26.60;54.00;;;;;;5088304;28;20078;-58
2022/07/31 04:25:45;;;;;;;0.82;0.82;;;26.60;54.00;;;;;;5088345;28;20196;-59
2022/07/31 04:28:12;;;;;;;0.90;0.90;;;26.60;53.90;;;;;;5088295;28;20454;-58
2022/07/31 04:30:39;;;;;;;0.85;0.85;;;26.70;53.90;;;;;;5088578;28;20437;-59
2022/07/31 04:33:06;;;;;;;1.10;1.10;;;26.70;53.90;;;;;;5089346;28;20435;-59
2022/07/31 04:35:34;;;;;;;0.80;0.80;;;26.70;53.90;;;;;;5084388;28;20128;-59
2022/07/31 04:38:01;;;;;;;0.80;0.80;;;26.70;53.80;;;;;;5088333;28;20052;-58
2022/07/31 04:40:28;;;;;;;1.25;1.17;;;26.70;53.80;;;;;;5087789;28;20051;-58
2022/07/31 04:42:55;;;;;;;0.80;0.80;;;26.70;53.70;;;;;;5086881;28;20048;-58
2022/07/31 04:45:22;;;;;;;0.70;0.70;;;26.70;53.70;;;;;;5089513;28;20159;-59
2022/07/31 04:47:49;;;;;;;0.80;0.80;;;26.80;53.70;;;;;;5088327;28;20326;-58
2022/07/31 04:50:16;;;;;;;1.58;1.05;;;26.80;54.20;;;;;;5088228;28;20611;-59
2022/07/31 04:52:44;;;;;;;0.70;0.70;;;26.80;53.60;;;;;;5070965;28;20048;-58
2022/07/31 04:55:11;;;;;;;0.52;0.50;;;26.80;53.50;;;;;;5087459;28;20513;-58
2022/07/31 04:57:38;;;;;;;0.70;0.70;;;26.80;53.50;;;;;;5088120;28;20636;-58
2022/07/31 05:00:08;;;;;;;0.63;0.63;;;26.80;53.40;;;;;;5088526;28;20574;-58
2022/07/31 05:02:35;;;;;;;0.93;0.73;;;26.80;53.40;;;;;;5086960;28;20047;-58
2022/07/31 05:05:03;;;;;;;0.70;0.70;;;26.90;53.40;;;;;;5088753;28;20043;-59
2022/07/31 05:07:30;;;;;;;1.08;1.08;;;26.90;53.30;;;;;;5081969;28;20072;-58
2022/07/31 05:09:57;;;;;;;0.80;0.80;;;26.80;53.20;;;;;;5088631;28;20130;-59
2022/07/31 05:12:25;;;;;;;1.10;1.00;;;26.80;53.30;;;;;;5087640;28;20470;-59
2022/07/31 05:14:52;;;;;;;1.02;0.90;;;26.70;53.30;;;;;;5085941;28;20044;-58
2022/07/31 05:17:19;;;;;;;1.10;1.00;;;26.60;53.40;;;;;;5088178;28;20097;-58
2022/07/31 05:19:46;;;;;;;1.20;1.20;;;26.50;53.60;;;;;;5087758;28;20040;-60
2022/07/31 05:22:13;;;;;;;1.10;1.10;;;26.30;53.50;;;;;;5088186;28;20343;-58
2022/07/31 05:24:41;;;;;;;1.30;1.20;;;26.00;52.90;;;;;;5085890;28;20507;-58
2022/07/31 05:27:09;;;;;;;0.90;0.90;;;25.70;52.30;;;;;;5087796;28;20511;-58
2022/07/31 05:29:36;;;;;;;1.17;1.17;;;25.50;51.80;;;;;;5087683;28;20558;-58
2022/07/31 05:32:03;;;;;;;1.45;1.35;;;25.10;51.40;;;;;;5087311;28;20093;-58
2022/07/31 05:34:31;;;;;;;1.13;1.13;;;24.80;51.00;;;;;;5086791;28;20274;-58
2022/07/31 05:37:02;;;;;;;1.67;1.13;;;24.50;50.90;;;;;;5087598;28;20495;-58
2022/07/31 05:39:30;;;;;;;1.63;1.52;;;24.10;50.70;;;;;;5082964;28;20097;-58
2022/07/31 05:41:57;;;;;;;1.35;1.25;;;23.80;50.50;;;;;;5087389;28;20093;-58
2022/07/31 05:44:24;;;;;;;1.35;1.25;;;23.50;50.60;;;;;;5087556;28;20051;-58
2022/07/31 05:46:52;;;;;;;1.40;1.40;;;23.10;50.50;;;;;;5087486;28;20052;-58
2022/07/31 05:49:18;;;;;;;1.50;1.40;;;22.80;50.60;;;;;;5087101;28;20090;-58
2022/07/31 05:51:46;;;;;;;1.45;1.27;;;22.50;50.90;;;;;;5087799;28;20052;-58
2022/07/31 05:54:13;;;;;;;1.50;1.40;;;22.30;51.80;;;;;;5087430;28;20451;-58
2022/07/31 05:56:40;;;;;;;1.67;1.58;;;22.10;52.00;;;;;;5086983;28;20127;-58
2022/07/31 05:59:08;;;;;;;1.60;1.50;;;21.90;52.10;;;;;;5086206;28;20119;-58
2022/07/31 06:01:36;;;;;;;1.70;1.60;;;21.70;52.50;;;;;;5086989;28;20528;-58
2022/07/31 06:04:03;;;;;;;1.55;1.45;;;21.60;52.90;;;;;;5087301;28;20086;-58
2022/07/31 06:06:30;;;;;;;1.52;1.42;;;21.40;53.20;;;;;;5086254;28;20127;-58
2022/07/31 06:08:57;;;;;;;1.42;1.40;;;21.30;53.50;;;;;;5086829;28;20131;-58
2022/07/31 06:11:30;;;;;;;1.33;1.30;;;21.30;54.20;;;;;;5082783;28;20459;-58
2022/07/31 06:13:58;;;;;;;1.63;1.42;;;21.20;54.20;;;;;;5087077;28;20121;-58
2022/07/31 06:16:25;;;;;;;1.45;1.42;;;21.10;54.30;;;;;;5086673;28;20481;-58
2022/07/31 06:18:52;;;;;;;1.40;1.30;;;21.10;54.60;;;;;;5086781;28;20127;-58
2022/07/31 06:21:19;;;;;;;1.58;1.45;;;21.10;54.70;;;;;;5086755;28;20056;-58
2022/07/31 06:23:45;;;;;;;2.65;1.98;;;21.10;54.90;;;;;;5086098;28;20040;-58
2022/07/31 06:26:12;;;;;;;1.50;1.40;;;21.00;54.80;;;;;;5086627;28;20511;-58
2022/07/31 06:28:39;;;;;;;1.55;1.45;;;21.00;55.20;;;;;;5086712;28;20078;-58
2022/07/31 06:31:20;;;;;;;1.50;1.50;;;20.90;55.60;;;;;;5087220;28;20629;-58
2022/07/31 06:33:47;;;;;;;2.10;1.45;;;20.90;55.40;;;;;;5085906;28;20188;-58
2022/07/31 06:36:16;;;;;;;1.52;1.42;;;21.00;55.70;;;;;;5086755;28;20256;-58
2022/07/31 06:38:44;;;;;;;3.78;1.65;;;21.00;55.70;;;;;;5086102;28;20471;-58
2022/07/31 06:41:43;;;;;;;1.52;1.50;;;20.90;55.40;;;;;;5083853;28;20048;-59
2022/07/31 06:43:59;;;;;;;2.08;1.50;;;20.90;55.60;;;;;;5086387;28;20538;-59
2022/07/31 06:46:27;;;;;;;1.52;1.42;;;20.90;55.50;;;;;;5086244;28;20142;-58
2022/07/31 06:48:54;;;;;;;2.58;1.60;;;20.90;55.70;;;;;;5086345;28;20086;-58
2022/07/31 06:51:21;;;;;;;1.35;1.35;;;20.90;55.70;;;;;;5086701;28;20492;-59
2022/07/31 06:54:00;;;;;;;1.30;1.20;;;20.90;55.50;;;;;;5086950;28;20055;-58
2022/07/31 06:56:29;;;;;;;1.90;1.80;;;20.90;55.80;;;;;;5086196;28;20535;-58
2022/07/31 06:58:59;;;;;;;1.63;1.52;;;20.90;55.90;;;;;;5085885;28;20288;-60
2022/07/31 07:01:26;;;;;;;1.52;1.40;;;20.90;56.20;;;;;;5085508;28;20409;-58
2022/07/31 07:03:55;;;;;;;1.73;1.63;;;21.00;56.30;;;;;;5085806;28;20050;-58
2022/07/31 07:06:22;;;;;;;1.40;1.38;;;21.00;56.20;;;;;;5087073;28;20044;-58
2022/07/31 07:08:51;;;;;;;1.30;1.30;;;21.00;56.40;;;;;;5086035;28;20121;-58
2022/07/31 07:11:18;;;;;;;1.85;1.40;;;21.10;56.30;;;;;;5086485;28;20083;-58
2022/07/31 07:13:46;;;;;;;1.60;1.50;;;21.10;56.10;;;;;;5081432;28;20488;-58
2022/07/31 07:16:14;;;;;;;1.40;1.30;;;21.10;55.90;;;;;;5085877;28;20136;-58
2022/07/31 07:18:42;;;;;;;1.58;1.48;;;21.10;55.80;;;;;;5086515;28;20052;-58
2022/07/31 07:21:10;;;;;;;1.60;1.50;;;21.10;55.50;;;;;;5087883;28;20048;-58
2022/07/31 07:23:38;;;;;;;1.40;1.30;;;21.10;55.50;;;;;;5090097;28;20080;-58
2022/07/31 07:26:05;;;;;;;1.50;1.40;;;21.10;55.40;;;;;;5088764;28;20551;-58
2022/07/31 07:28:33;;;;;;;2.13;1.67;;;21.00;55.50;;;;;;5090066;28;20044;-58
2022/07/31 07:31:01;;;;;;;1.40;1.30;;;21.00;55.40;;;;;;5090245;28;20070;-58
2022/07/31 07:33:30;;;;;;;1.58;1.23;;;21.10;55.30;;;;;;5090311;28;20105;-58
2022/07/31 07:36:09;;;;;;;1.38;1.27;;;21.00;55.20;;;;;;5090296;28;20432;-58
2022/07/31 07:38:52;;;;;;;1.27;1.27;;;21.00;55.30;;;;;;5089840;28;20050;-58
2022/07/31 07:41:22;;;;;;;1.63;1.52;;;21.00;55.10;;;;;;5089872;28;20425;-58
2022/07/31 07:43:50;;;;;;;1.15;1.10;;;21.00;55.30;;;;;;5089343;28;20090;-58
2022/07/31 07:46:20;;;;;;;1.58;1.48;;;20.90;55.30;;;;;;5086645;28;20420;-58
2022/07/31 07:48:49;;;;;;;1.27;1.23;;;20.90;55.20;;;;;;5089521;28;20370;-58
2022/07/31 07:51:17;;;;;;;1.47;1.37;;;20.90;55.50;;;;;;5089634;28;20536;-58
2022/07/31 07:53:44;;;;;;;1.27;1.23;;;20.90;55.40;;;;;;5089397;28;20097;-58
2022/07/31 07:56:11;;;;;;;2.67;1.30;;;20.90;55.70;;;;;;5090053;28;20048;-60
2022/07/31 07:58:39;;;;;;;1.50;1.40;;;20.80;55.70;;;;;;5087788;28;20047;-58
2022/07/31 08:01:08;;;;;;;1.27;1.17;;;20.80;55.90;;;;;;5088783;28;20056;-58
2022/07/31 08:03:35;;;;;;;1.30;1.20;;;20.90;56.00;;;;;;5089751;28;20044;-58
2022/07/31 08:06:16;;;;;;;1.15;1.15;;;20.80;56.00;;;;;;5089358;28;20546;-58
2022/07/31 08:08:44;;;;;;;1.50;1.40;;;20.80;56.20;;;;;;5089902;28;20464;-58
2022/07/31 08:11:11;;;;;;;2.25;1.52;;;20.80;56.30;;;;;;5089137;28;20507;-58
2022/07/31 08:13:47;;;;;;;2.33;2.08;;;20.90;56.30;;;;;;5089466;28;20044;-58
2022/07/31 08:16:19;;;;;;;1.40;1.30;;;20.90;56.30;;;;;;5082732;28;20047;-58
2022/07/31 08:18:47;;;;;;;1.70;1.60;;;20.90;56.20;;;;;;5089467;28;20244;-58
2022/07/31 08:21:15;;;;;;;1.67;1.48;;;20.90;56.30;;;;;;5089222;28;20554;-58
2022/07/31 08:23:42;;;;;;;1.27;1.27;;;20.90;56.40;;;;;;5088438;28;20098;-58
2022/07/31 08:26:09;;;;;;;1.60;1.50;;;20.80;56.40;;;;;;5089055;28;20113;-58
2022/07/31 08:28:39;;;;;;;1.40;1.30;;;20.80;56.50;;;;;;5088898;28;20060;-58
2022/07/31 08:31:07;;;;;;;1.88;1.60;;;20.80;56.60;;;;;;5070971;28;20147;-58
2022/07/31 08:33:34;;;;;;;3.88;1.67;;;20.80;56.50;;;;;;5088533;28;20048;-58
2022/07/31 08:36:03;;;;;;;3.17;1.42;;;20.80;56.30;;;;;;5087532;28;20044;-58
2022/07/31 08:38:30;;;;;;;1.50;1.40;;;20.80;56.50;;;;;;5089068;28;20136;-58
2022/07/31 08:40:57;;;;;;;1.70;1.60;;;20.70;56.40;;;;;;5087254;28;20438;-58
2022/07/31 08:43:24;;;;;;;1.42;1.33;;;20.70;56.50;;;;;;5088503;28;20101;-58
2022/07/31 08:46:12;;;;;;;1.63;1.52;;;20.70;56.60;;;;;;5088001;28;20346;-58
2022/07/31 08:48:40;;;;;;;2.72;1.60;;;20.70;56.90;;;;;;5083842;28;20091;-57
2022/07/31 08:51:11;;;;;;;1.35;1.25;;;20.70;56.80;;;;;;5088767;28;20107;-58
2022/07/31 08:53:40;;;;;;;1.30;1.27;;;20.70;56.90;;;;;;5088152;28;20556;-58
2022/07/31 08:56:08;;;;;;;1.83;1.73;;;20.70;57.00;;;;;;5088835;28;20078;-57
2022/07/31 08:58:36;;;;;;;1.45;1.35;;;20.70;56.80;;;;;;5088547;28;20094;-58
2022/07/31 09:01:06;;;;;;;;;;;20.70;57.00;;;;;;5088611;28;20507;-58
2022/07/31 09:03:34;;;;;;;1.40;1.30;;;20.70;57.00;;;;;;5088459;28;20023;-58
2022/07/31 09:06:03;;;;;;;2.53;1.55;;;20.70;57.10;;;;;;5087652;28;20048;-58
2022/07/31 09:08:35;;;;;;;1.48;1.38;;;20.70;57.20;;;;;;5088040;28;20131;-58
2022/07/31 09:11:05;;;;;;;2.25;2.00;;;20.70;57.20;;;;;;5088100;28;20047;-60
2022/07/31 09:13:36;;;;;;;1.55;1.42;;;20.80;57.10;;;;;;5088062;28;20071;-58
2022/07/31 09:16:04;;;;;;;2.20;1.15;;;20.80;57.30;;;;;;5088032;28;20048;-58
2022/07/31 09:18:32;;;;;;;1.50;1.38;;;20.80;57.30;;;;;;5087178;28;20116;-57
2022/07/31 09:21:01;;;;;;;1.50;1.40;;;20.80;57.30;;;;;;5082921;28;20561;-58
2022/07/31 09:23:29;;;;;;;2.15;1.40;;;20.80;57.20;;;;;;5087882;28;20048;-58
2022/07/31 09:26:04;;;;;;;1.17;1.10;;;20.80;57.30;;;;;;5087825;28;20545;-58
2022/07/31 09:28:37;;;;;;;2.20;1.73;;;20.80;57.00;;;;;;5087877;28;20052;-58
2022/07/31 09:31:06;;;;;;;1.42;1.33;;;20.80;56.90;;;;;;5086567;28;20075;-57
2022/07/31 09:33:37;;;;;;;3.30;1.45;;;20.80;56.90;;;;;;5086897;28;20102;-58
2022/07/31 09:36:12;;;;;;;1.20;1.13;;;20.80;56.70;;;;;;5087857;28;20123;-57
2022/07/31 09:38:41;;;;;;;1.38;1.35;;;20.90;56.90;;;;;;5087552;28;20068;-58
2022/07/31 09:41:14;;;;;;;1.40;1.30;;;20.90;56.60;;;;;;5087455;28;20542;-58
2022/07/31 09:44:03;;;;;;;1.58;1.48;;;20.90;56.40;;;;;;5086918;28;20127;-58
2022/07/31 09:46:45;;;;;;;1.25;1.20;;;20.90;56.50;;;;;;5087748;28;20052;-59
2022/07/31 09:49:13;;;;;;;2.05;1.40;;;20.90;56.40;;;;;;5085707;28;20504;-58
2022/07/31 09:51:45;;;;;;;2.20;1.70;;;20.90;56.50;;;;;;5081757;28;20055;-58
2022/07/31 09:54:24;;;;;;;1.40;1.30;;;20.90;56.60;;;;;;5087096;28;20121;-58
2022/07/31 09:56:51;;;;;;;1.42;1.33;;;20.90;56.90;;;;;;5087703;28;20064;-58
2022/07/31 09:59:18;;;;;;;1.33;1.23;;;21.00;56.50;;;;;;5087743;28;20097;-58
2022/07/31 10:01:50;;;;;;;1.60;1.50;;;21.00;56.30;;;;;;5087002;28;20377;-59
2022/07/31 10:04:18;;;;;;;1.48;1.40;;;21.00;56.00;;;;;;5087519;28;20509;-58
2022/07/31 10:06:49;;;;;;;1.60;1.50;;;21.00;55.70;;;;;;5085622;28;20460;-59
2022/07/31 10:09:19;;;;;;;2.47;1.50;;;21.00;55.50;;;;;;5087353;28;20211;-58
2022/07/31 10:11:48;;;;;;;1.65;1.15;;;21.00;55.30;;;;;;5086887;28;20655;-58
2022/07/31 10:14:21;;;;;;;1.63;1.50;;;20.90;55.10;;;;;;5086982;28;20541;-58
2022/07/31 10:16:53;;;;;;;2.85;1.30;;;20.90;55.10;;;;;;5087477;28;20075;-58
2022/07/31 10:19:21;;;;;;;1.30;1.13;;;20.90;55.00;;;;;;5085502;28;20586;-60
2022/07/31 10:21:58;;;;;;;1.38;1.27;;;20.80;54.50;;;;;;5087162;28;20113;-58
2022/07/31 10:24:27;;;;;;;1.50;1.40;;;20.80;54.30;;;;;;5082272;28;20533;-58
2022/07/31 10:27:00;;;;;;;1.42;1.40;;;20.70;54.40;;;;;;5085048;28;20495;-58
2022/07/31 10:29:38;;;;;;;2.17;1.40;;;20.70;54.20;;;;;;5086908;28;20083;-58
2022/07/31 10:32:06;;;;;;;3.03;1.50;;;20.60;54.20;;;;;;5086034;28;20416;-58
2022/07/31 10:34:34;;;;;;;1.40;1.30;;;20.50;54.20;;;;;;5086880;28;20109;-58
2022/07/31 10:37:17;;;;;;;2.40;1.15;;;20.50;54.00;;;;;;5086101;28;20615;-58
2022/07/31 10:40:23;;;;;;;1.40;1.30;;;20.40;54.10;;;;;;5087255;28;20338;-58
2022/07/31 10:43:10;;;;;;;1.10;1.10;;;20.40;54.10;;;;;;5086271;28;20521;-58
2022/07/31 10:45:51;;;;;;;1.50;1.15;;;20.30;54.20;;;;;;5086255;28;20560;-58
2022/07/31 10:48:19;;;;;;;1.17;1.17;;;20.30;54.20;;;;;;5086620;28;20137;-57
2022/07/31 10:50:47;;;;;;;1.25;1.25;;;20.30;54.20;;;;;;5086231;28;20454;-58
2022/07/31 10:53:17;;;;;;;1.40;1.40;;;20.30;54.20;;;;;;5086432;28;20488;-58
2022/07/31 10:55:44;;;;;;;1.73;1.60;;;20.30;54.40;;;;;;5080172;28;20566;-58
2022/07/31 10:58:14;;;;;;;1.30;1.30;;;20.30;54.50;;;;;;5085350;28;20591;-58
2022/07/31 11:00:42;;;;;;;1.55;1.45;;;20.30;54.60;;;;;;5086287;28;20571;-59
2022/07/31 11:03:21;;;;;;;2.38;1.27;;;20.30;54.70;;;;;;5086198;28;20048;-58
2022/07/31 11:05:54;;;;;;;1.63;1.52;;;20.30;54.70;;;;;;5086811;28;20524;-58
2022/07/31 11:08:41;;;;;;;1.50;1.13;;;20.40;54.70;;;;;;5084807;28;20131;-58
2022/07/31 11:11:08;;;;;;;1.52;1.42;;;20.50;54.60;;;;;;5086568;28;20090;-58
2022/07/31 11:13:49;;;;;;;1.10;1.10;;;20.50;54.50;;;;;;5085798;28;20067;-58
2022/07/31 11:16:18;;;;;;;1.48;1.38;;;20.50;54.30;;;;;;5086870;28;20093;-58
2022/07/31 11:18:58;;;;;;;1.30;1.30;;;20.60;54.40;;;;;;5085696;28;20339;-58
2022/07/31 11:21:31;;;;;;;1.80;1.70;;;20.60;54.30;;;;;;5086293;28;20040;-58
2022/07/31 11:24:21;;;;;;;1.27;1.27;;;20.60;54.40;;;;;;5086228;28;20047;-59
2022/07/31 11:26:54;;;;;;;1.58;1.48;;;20.70;54.30;;;;;;5081315;28;20094;-59
2022/07/31 11:29:36;;;;;;;1.52;1.42;;;20.70;54.40;;;;;;5086446;28;20105;-58
2022/07/31 11:32:23;;;;;;;1.63;1.52;;;20.70;54.30;;;;;;5085690;28;20230;-58
2022/07/31 11:34:54;;;;;;;1.85;1.63;;;20.60;54.50;;;;;;5086391;28;20044;-58
2022/07/31 11:37:30;;;;;;;1.83;1.73;;;20.60;54.60;;;;;;5085961;28;20044;-58
2022/07/31 11:40:19;;;;;;;1.92;1.25;;;20.70;54.80;;;;;;5086444;28;20408;-58
2022/07/31 11:42:53;;;;;;;1.45;1.33;;;20.70;54.70;;;;;;5086219;28;20209;-58
2022/07/31 11:45:53;;;;;;;1.40;1.35;;;20.70;54.70;;;;;;5086259;28;20139;-58
2022/07/31 11:48:23;;;;;;;1.50;1.40;;;20.70;54.50;;;;;;5085636;28;20508;-59
2022/07/31 11:50:53;;;;;;;1.40;1.30;;;20.60;54.40;;;;;;5084979;28;20048;-58
2022/07/31 11:53:21;;;;;;;1.58;1.48;;;20.70;54.40;;;;;;5084988;28;20044;-58
2022/07/31 11:55:54;;;;;;;1.58;1.48;;;20.70;54.40;;;;;;5086067;28;20126;-58
2022/07/31 11:58:23;;;;;;;1.38;1.38;;;20.70;54.50;;;;;;5081250;28;20101;-58
2022/07/31 12:00:53;;;;;;;1.58;1.48;;;20.70;54.60;;;;;;5086560;28;20551;-58
2022/07/31 12:03:27;;;;;;;2.53;1.30;;;20.70;54.70;;;;;;5083783;28;20100;-58
2022/07/31 12:05:54;;;;;;;1.80;1.40;;;20.70;54.50;;;;;;5086133;28;20070;-58
2022/07/31 12:08:23;;;;;;;3.38;1.50;;;20.70;54.70;;;;;;5086937;28;20703;-58
2022/07/31 12:10:53;;;;;;;6.15;1.65;;;20.70;54.80;;;;;;5089859;28;20079;-58
2022/07/31 12:13:21;;;;;;;2.03;1.85;;;20.70;54.80;;;;;;5089230;28;20068;-58
2022/07/31 12:16:03;;;;;;;1.67;1.58;;;20.80;54.90;;;;;;5088775;28;20044;-58
2022/07/31 12:18:45;;;;;;;1.23;1.23;;;20.80;54.80;;;;;;5089574;28;20495;-59
2022/07/31 12:21:13;;;;;;;1.58;1.48;;;20.80;54.70;;;;;;5087991;28;20408;-58
2022/07/31 12:23:45;;;;;;;1.88;1.60;;;20.90;54.90;;;;;;5088778;28;20080;-58
2022/07/31 12:26:22;;;;;;;1.63;1.52;;;20.90;54.90;;;;;;5087784;28;20284;-58
2022/07/31 12:29:01;;;;;;;1.33;1.30;;;20.90;54.80;;;;;;5088915;28;20560;-59
2022/07/31 12:31:31;;;;;;;2.58;1.35;;;20.90;54.70;;;;;;5084463;28;20277;-58
2022/07/31 12:34:00;;;;;;;1.58;1.48;;;20.90;54.50;;;;;;5087371;28;20094;-58
2022/07/31 12:36:28;;;;;;;1.50;1.40;;;21.00;54.70;;;;;;5089000;28;20105;-58
2022/07/31 12:39:03;;;;;;;2.50;1.50;;;21.00;54.50;;;;;;5088295;28;20274;-58
2022/07/31 12:41:39;;;;;;;2.92;1.48;;;21.00;54.50;;;;;;5089271;28;20161;-58
2022/07/31 12:44:09;;;;;;;1.52;1.42;;;21.00;54.80;;;;;;5088857;28;20102;-58
2022/07/31 12:46:39;;;;;;;1.88;1.77;;;21.00;54.70;;;;;;5088512;28;20093;-58
2022/07/31 12:49:07;;;;;;;2.95;1.98;;;21.10;54.80;;;;;;5088842;28;20047;-58
2022/07/31 12:51:35;;;;;;;5.03;1.60;;;21.10;54.80;;;;;;5088702;28;20127;-58
2022/07/31 12:54:16;;;;;;;1.50;1.40;;;21.10;54.80;;;;;;5088698;28;20131;-58
2022/07/31 12:56:45;;;;;;;1.42;1.33;;;21.10;54.80;;;;;;5088209;28;20528;-58
2022/07/31 12:59:13;;;;;;;3.17;1.98;;;21.20;54.70;;;;;;5087386;28;20047;-58
2022/07/31 13:01:40;;;;;;;2.65;1.85;;;21.20;54.70;;;;;;5083679;28;20702;-58
2022/07/31 13:04:08;;;;;;;1.60;1.30;;;21.20;54.70;;;;;;5088312;28;20044;-58